sensor_id;sensor_type;location;lat;lon;timestamp;P1;durP1;ratioP1;P2;durP2;ratioP2
21299;SDS011;10809;49.476;11.016;2024-02-04T00:02:24;0.60;;;0.60;;
21299;SDS011;10809;49.476;11.016;2024-02-04T00:04:55;0.37;;;0.33;;
21299;SDS011;10809;49.476;11.016;2024-02-04T00:07:26;0.40;;;0.40;;
21299;SDS011;10809;49.476;11.016;2024-02-04T00:09:57;0.40;;;0.40;;
21299;SDS011;10809;49.476;11.016;2024-02-04T00:12:29;0.27;;;0.20;;
21299;SDS011;10809;49.476;11.016;2024-02-04T00:14:59;0.30;;;0.30;;
21299;SDS011;10809;49.476;11.016;2024-02-04T00:17:31;0.50;;;0.37;;
21299;SDS011;10809;49.476;11.016;2024-02-04T00:20:03;0.40;;;0.40;;
21299;SDS011;10809;49.476;11.016;2024-02-04T00:22:38;0.40;;;0.40;;
21299;SDS011;10809;49.476;11.016;2024-02-04T00:25:09;0.40;;;0.40;;
21299;SDS011;10809;49.476;11.016;2024-02-04T00:27:42;1.00;;;0.70;;
21299;SDS011;10809;49.476;11.016;2024-02-04T00:30:12;0.50;;;0.50;;
21299;SDS011;10809;49.476;11.016;2024-02-04T00:32:44;0.40;;;0.30;;
21299;SDS011;10809;49.476;11.016;2024-02-04T00:35:16;1.60;;;0.67;;
21299;SDS011;10809;49.476;11.016;2024-02-04T00:37:47;0.40;;;0.40;;
21299;SDS011;10809;49.476;11.016;2024-02-04T00:40:17;0.97;;;0.30;;
21299;SDS011;10809;49.476;11.016;2024-02-04T00:42:49;0.40;;;0.40;;
21299;SDS011;10809;49.476;11.016;2024-02-04T00:45:20;0.40;;;0.40;;
21299;SDS011;10809;49.476;11.016;2024-02-04T00:47:51;0.40;;;0.40;;
21299;SDS011;10809;49.476;11.016;2024-02-04T00:50:23;0.30;;;0.30;;
21299;SDS011;10809;49.476;11.016;2024-02-04T00:52:53;0.40;;;0.40;;
21299;SDS011;10809;49.476;11.016;2024-02-04T00:55:25;0.33;;;0.33;;
21299;SDS011;10809;49.476;11.016;2024-02-04T00:57:56;0.23;;;0.23;;
21299;SDS011;10809;49.476;11.016;2024-02-04T01:00:30;0.30;;;0.30;;
21299;SDS011;10809;49.476;11.016;2024-02-04T01:03:01;0.40;;;0.40;;
21299;SDS011;10809;49.476;11.016;2024-02-04T01:05:31;0.40;;;0.40;;
21299;SDS011;10809;49.476;11.016;2024-02-04T01:08:03;0.40;;;0.40;;
21299;SDS011;10809;49.476;11.016;2024-02-04T01:10:34;0.30;;;0.30;;
21299;SDS011;10809;49.476;11.016;2024-02-04T01:13:06;0.30;;;0.30;;
21299;SDS011;10809;49.476;11.016;2024-02-04T01:15:38;0.43;;;0.43;;
21299;SDS011;10809;49.476;11.016;2024-02-04T01:18:09;0.33;;;0.33;;
21299;SDS011;10809;49.476;11.016;2024-02-04T01:20:40;0.77;;;0.30;;
21299;SDS011;10809;49.476;11.016;2024-02-04T01:23:11;0.37;;;0.37;;
21299;SDS011;10809;49.476;11.016;2024-02-04T01:25:46;0.40;;;0.40;;
21299;SDS011;10809;49.476;11.016;2024-02-04T01:28:18;0.27;;;0.27;;
21299;SDS011;10809;49.476;11.016;2024-02-04T01:30:49;0.40;;;0.40;;
21299;SDS011;10809;49.476;11.016;2024-02-04T01:33:20;0.30;;;0.30;;
21299;SDS011;10809;49.476;11.016;2024-02-04T01:35:51;0.20;;;0.20;;
21299;SDS011;10809;49.476;11.016;2024-02-04T01:38:23;0.20;;;0.20;;
21299;SDS011;10809;49.476;11.016;2024-02-04T01:40:54;0.30;;;0.30;;
21299;SDS011;10809;49.476;11.016;2024-02-04T01:43:25;0.40;;;0.40;;
21299;SDS011;10809;49.476;11.016;2024-02-04T01:45:56;0.30;;;0.30;;
21299;SDS011;10809;49.476;11.016;2024-02-04T01:48:28;0.40;;;0.40;;
21299;SDS011;10809;49.476;11.016;2024-02-04T01:50:59;0.30;;;0.20;;
21299;SDS011;10809;49.476;11.016;2024-02-04T01:53:32;0.47;;;0.47;;
21299;SDS011;10809;49.476;11.016;2024-02-04T01:56:06;0.53;;;0.40;;
21299;SDS011;10809;49.476;11.016;2024-02-04T01:58:38;1.27;;;0.50;;
21299;SDS011;10809;49.476;11.016;2024-02-04T02:01:12;0.30;;;0.30;;
21299;SDS011;10809;49.476;11.016;2024-02-04T02:03:44;0.30;;;0.30;;
21299;SDS011;10809;49.476;11.016;2024-02-04T02:06:15;0.40;;;0.40;;
21299;SDS011;10809;49.476;11.016;2024-02-04T02:08:46;0.20;;;0.20;;
21299;SDS011;10809;49.476;11.016;2024-02-04T02:11:19;0.60;;;0.50;;
21299;SDS011;10809;49.476;11.016;2024-02-04T02:14:00;0.50;;;0.50;;
21299;SDS011;10809;49.476;11.016;2024-02-04T02:16:34;0.40;;;0.40;;
21299;SDS011;10809;49.476;11.016;2024-02-04T02:19:12;0.40;;;0.40;;
21299;SDS011;10809;49.476;11.016;2024-02-04T02:24:41;0.33;;;0.33;;
21299;SDS011;10809;49.476;11.016;2024-02-04T02:27:13;0.40;;;0.40;;
21299;SDS011;10809;49.476;11.016;2024-02-04T02:29:44;0.30;;;0.30;;
21299;SDS011;10809;49.476;11.016;2024-02-04T02:32:15;0.30;;;0.30;;
21299;SDS011;10809;49.476;11.016;2024-02-04T02:34:46;0.20;;;0.20;;
21299;SDS011;10809;49.476;11.016;2024-02-04T02:42:42;0.40;;;0.40;;
21299;SDS011;10809;49.476;11.016;2024-02-04T02:45:16;0.30;;;0.30;;
21299;SDS011;10809;49.476;11.016;2024-02-04T02:47:49;0.60;;;0.53;;
21299;SDS011;10809;49.476;11.016;2024-02-04T02:50:22;0.33;;;0.33;;
21299;SDS011;10809;49.476;11.016;2024-02-04T02:52:53;0.40;;;0.40;;
21299;SDS011;10809;49.476;11.016;2024-02-04T02:55:25;0.30;;;0.30;;
21299;SDS011;10809;49.476;11.016;2024-02-04T02:57:57;0.40;;;0.40;;
21299;SDS011;10809;49.476;11.016;2024-02-04T03:00:28;0.47;;;0.47;;
21299;SDS011;10809;49.476;11.016;2024-02-04T03:02:58;0.40;;;0.40;;
21299;SDS011;10809;49.476;11.016;2024-02-04T03:05:30;0.57;;;0.57;;
21299;SDS011;10809;49.476;11.016;2024-02-04T03:08:02;0.50;;;0.50;;
21299;SDS011;10809;49.476;11.016;2024-02-04T03:10:34;0.50;;;0.50;;
21299;SDS011;10809;49.476;11.016;2024-02-04T03:13:04;0.40;;;0.40;;
21299;SDS011;10809;49.476;11.016;2024-02-04T03:15:36;0.30;;;0.30;;
21299;SDS011;10809;49.476;11.016;2024-02-04T03:18:11;0.50;;;0.50;;
21299;SDS011;10809;49.476;11.016;2024-02-04T03:20:42;0.70;;;0.70;;
21299;SDS011;10809;49.476;11.016;2024-02-04T03:23:13;0.30;;;0.30;;
21299;SDS011;10809;49.476;11.016;2024-02-04T03:25:44;0.50;;;0.50;;
21299;SDS011;10809;49.476;11.016;2024-02-04T03:28:15;0.40;;;0.40;;
21299;SDS011;10809;49.476;11.016;2024-02-04T03:30:46;0.40;;;0.40;;
21299;SDS011;10809;49.476;11.016;2024-02-04T03:33:20;0.60;;;0.33;;
21299;SDS011;10809;49.476;11.016;2024-02-04T03:35:51;0.47;;;0.47;;
21299;SDS011;10809;49.476;11.016;2024-02-04T03:38:22;0.30;;;0.30;;
21299;SDS011;10809;49.476;11.016;2024-02-04T03:40:55;0.40;;;0.40;;
21299;SDS011;10809;49.476;11.016;2024-02-04T03:43:27;0.40;;;0.40;;
21299;SDS011;10809;49.476;11.016;2024-02-04T03:45:58;0.40;;;0.40;;
21299;SDS011;10809;49.476;11.016;2024-02-04T03:48:29;0.33;;;0.33;;
21299;SDS011;10809;49.476;11.016;2024-02-04T03:51:00;0.30;;;0.30;;
21299;SDS011;10809;49.476;11.016;2024-02-04T03:53:33;0.50;;;0.50;;
21299;SDS011;10809;49.476;11.016;2024-02-04T03:56:08;0.50;;;0.50;;
21299;SDS011;10809;49.476;11.016;2024-02-04T03:58:42;0.60;;;0.60;;
21299;SDS011;10809;49.476;11.016;2024-02-04T04:01:13;0.73;;;0.40;;
21299;SDS011;10809;49.476;11.016;2024-02-04T04:03:46;0.60;;;0.60;;
21299;SDS011;10809;49.476;11.016;2024-02-04T04:06:17;0.83;;;0.67;;
21299;SDS011;10809;49.476;11.016;2024-02-04T04:08:49;0.40;;;0.40;;
21299;SDS011;10809;49.476;11.016;2024-02-04T04:11:20;0.50;;;0.50;;
21299;SDS011;10809;49.476;11.016;2024-02-04T04:13:52;0.50;;;0.50;;
21299;SDS011;10809;49.476;11.016;2024-02-04T04:16:24;0.50;;;0.50;;
21299;SDS011;10809;49.476;11.016;2024-02-04T04:18:55;0.60;;;0.60;;
21299;SDS011;10809;49.476;11.016;2024-02-04T04:21:35;0.50;;;0.50;;
21299;SDS011;10809;49.476;11.016;2024-02-04T04:24:07;0.40;;;0.40;;
21299;SDS011;10809;49.476;11.016;2024-02-04T04:26:39;0.50;;;0.50;;
21299;SDS011;10809;49.476;11.016;2024-02-04T04:29:18;0.50;;;0.50;;
21299;SDS011;10809;49.476;11.016;2024-02-04T04:31:50;0.40;;;0.40;;
21299;SDS011;10809;49.476;11.016;2024-02-04T04:34:22;0.40;;;0.40;;
21299;SDS011;10809;49.476;11.016;2024-02-04T04:36:57;0.50;;;0.50;;
21299;SDS011;10809;49.476;11.016;2024-02-04T04:39:28;0.40;;;0.40;;
21299;SDS011;10809;49.476;11.016;2024-02-04T04:41:59;0.30;;;0.30;;
21299;SDS011;10809;49.476;11.016;2024-02-04T04:44:29;0.50;;;0.50;;
21299;SDS011;10809;49.476;11.016;2024-02-04T04:47:01;0.40;;;0.40;;
21299;SDS011;10809;49.476;11.016;2024-02-04T04:49:33;0.53;;;0.53;;
21299;SDS011;10809;49.476;11.016;2024-02-04T04:52:04;0.50;;;0.50;;
21299;SDS011;10809;49.476;11.016;2024-02-04T04:54:34;0.30;;;0.30;;
21299;SDS011;10809;49.476;11.016;2024-02-04T04:57:06;0.50;;;0.50;;
21299;SDS011;10809;49.476;11.016;2024-02-04T04:59:37;0.37;;;0.37;;
21299;SDS011;10809;49.476;11.016;2024-02-04T05:02:09;0.40;;;0.40;;
21299;SDS011;10809;49.476;11.016;2024-02-04T05:04:44;0.40;;;0.40;;
21299;SDS011;10809;49.476;11.016;2024-02-04T05:07:15;0.40;;;0.40;;
21299;SDS011;10809;49.476;11.016;2024-02-04T05:09:46;0.50;;;0.50;;
21299;SDS011;10809;49.476;11.016;2024-02-04T05:12:17;0.30;;;0.30;;
21299;SDS011;10809;49.476;11.016;2024-02-04T05:14:50;0.30;;;0.30;;
21299;SDS011;10809;49.476;11.016;2024-02-04T05:17:21;0.40;;;0.40;;
21299;SDS011;10809;49.476;11.016;2024-02-04T05:19:52;0.30;;;0.30;;
21299;SDS011;10809;49.476;11.016;2024-02-04T05:22:23;0.60;;;0.53;;
21299;SDS011;10809;49.476;11.016;2024-02-04T05:24:54;0.23;;;0.23;;
21299;SDS011;10809;49.476;11.016;2024-02-04T05:27:25;0.20;;;0.20;;
21299;SDS011;10809;49.476;11.016;2024-02-04T05:29:56;0.20;;;0.20;;
21299;SDS011;10809;49.476;11.016;2024-02-04T05:32:28;0.20;;;0.20;;
21299;SDS011;10809;49.476;11.016;2024-02-04T05:34:59;0.20;;;0.20;;
21299;SDS011;10809;49.476;11.016;2024-02-04T05:37:30;0.47;;;0.30;;
21299;SDS011;10809;49.476;11.016;2024-02-04T05:40:01;0.23;;;0.20;;
21299;SDS011;10809;49.476;11.016;2024-02-04T05:42:34;0.20;;;0.20;;
21299;SDS011;10809;49.476;11.016;2024-02-04T05:45:09;0.20;;;0.20;;
21299;SDS011;10809;49.476;11.016;2024-02-04T05:47:40;0.10;;;0.10;;
21299;SDS011;10809;49.476;11.016;2024-02-04T05:50:12;0.10;;;0.10;;
21299;SDS011;10809;49.476;11.016;2024-02-04T05:52:44;0.20;;;0.20;;
21299;SDS011;10809;49.476;11.016;2024-02-04T05:55:19;0.20;;;0.20;;
21299;SDS011;10809;49.476;11.016;2024-02-04T05:57:51;0.10;;;0.10;;
21299;SDS011;10809;49.476;11.016;2024-02-04T06:00:23;0.20;;;0.20;;
21299;SDS011;10809;49.476;11.016;2024-02-04T06:02:54;0.10;;;0.10;;
21299;SDS011;10809;49.476;11.016;2024-02-04T06:05:25;0.20;;;0.20;;
21299;SDS011;10809;49.476;11.016;2024-02-04T06:07:55;0.10;;;0.10;;
21299;SDS011;10809;49.476;11.016;2024-02-04T06:10:26;0.20;;;0.20;;
21299;SDS011;10809;49.476;11.016;2024-02-04T06:12:58;0.10;;;0.10;;
21299;SDS011;10809;49.476;11.016;2024-02-04T06:15:37;0.77;;;0.23;;
21299;SDS011;10809;49.476;11.016;2024-02-04T06:18:10;0.40;;;0.40;;
21299;SDS011;10809;49.476;11.016;2024-02-04T06:20:42;0.30;;;0.20;;
21299;SDS011;10809;49.476;11.016;2024-02-04T06:23:17;0.20;;;0.20;;
21299;SDS011;10809;49.476;11.016;2024-02-04T06:25:50;0.20;;;0.20;;
21299;SDS011;10809;49.476;11.016;2024-02-04T06:28:23;1.13;;;0.10;;
21299;SDS011;10809;49.476;11.016;2024-02-04T06:30:55;0.10;;;0.10;;
21299;SDS011;10809;49.476;11.016;2024-02-04T06:33:27;0.30;;;0.30;;
21299;SDS011;10809;49.476;11.016;2024-02-04T06:35:58;0.87;;;0.20;;
21299;SDS011;10809;49.476;11.016;2024-02-04T06:38:31;0.30;;;0.30;;
21299;SDS011;10809;49.476;11.016;2024-02-04T06:41:04;0.27;;;0.27;;
21299;SDS011;10809;49.476;11.016;2024-02-04T06:43:44;0.70;;;0.40;;
21299;SDS011;10809;49.476;11.016;2024-02-04T06:46:36;0.37;;;0.37;;
21299;SDS011;10809;49.476;11.016;2024-02-04T06:49:07;0.20;;;0.20;;
21299;SDS011;10809;49.476;11.016;2024-02-04T06:51:38;0.30;;;0.10;;
21299;SDS011;10809;49.476;11.016;2024-02-04T06:54:12;0.30;;;0.20;;
21299;SDS011;10809;49.476;11.016;2024-02-04T06:56:42;0.17;;;0.17;;
21299;SDS011;10809;49.476;11.016;2024-02-04T06:59:13;0.17;;;0.17;;
21299;SDS011;10809;49.476;11.016;2024-02-04T07:01:44;0.30;;;0.30;;
21299;SDS011;10809;49.476;11.016;2024-02-04T07:04:16;0.30;;;0.30;;
21299;SDS011;10809;49.476;11.016;2024-02-04T07:06:46;0.53;;;0.20;;
21299;SDS011;10809;49.476;11.016;2024-02-04T07:09:18;0.30;;;0.30;;
21299;SDS011;10809;49.476;11.016;2024-02-04T07:11:49;0.40;;;0.40;;
21299;SDS011;10809;49.476;11.016;2024-02-04T07:14:20;0.50;;;0.50;;
21299;SDS011;10809;49.476;11.016;2024-02-04T07:16:51;0.50;;;0.50;;
21299;SDS011;10809;49.476;11.016;2024-02-04T07:19:23;0.33;;;0.33;;
21299;SDS011;10809;49.476;11.016;2024-02-04T07:21:54;0.30;;;0.30;;
21299;SDS011;10809;49.476;11.016;2024-02-04T07:24:25;0.50;;;0.50;;
21299;SDS011;10809;49.476;11.016;2024-02-04T07:26:56;0.30;;;0.30;;
21299;SDS011;10809;49.476;11.016;2024-02-04T07:29:27;0.20;;;0.20;;
21299;SDS011;10809;49.476;11.016;2024-02-04T07:32:01;0.40;;;0.30;;
21299;SDS011;10809;49.476;11.016;2024-02-04T07:34:34;0.77;;;0.50;;
21299;SDS011;10809;49.476;11.016;2024-02-04T07:37:05;0.60;;;0.60;;
21299;SDS011;10809;49.476;11.016;2024-02-04T07:39:50;0.20;;;0.20;;
21299;SDS011;10809;49.476;11.016;2024-02-04T07:42:23;0.37;;;0.37;;
21299;SDS011;10809;49.476;11.016;2024-02-04T07:44:57;0.67;;;0.40;;
21299;SDS011;10809;49.476;11.016;2024-02-04T07:47:31;0.20;;;0.20;;
21299;SDS011;10809;49.476;11.016;2024-02-04T07:50:03;0.97;;;0.30;;
21299;SDS011;10809;49.476;11.016;2024-02-04T07:52:37;0.40;;;0.40;;
21299;SDS011;10809;49.476;11.016;2024-02-04T07:55:09;0.50;;;0.50;;
21299;SDS011;10809;49.476;11.016;2024-02-04T07:57:40;0.30;;;0.30;;
21299;SDS011;10809;49.476;11.016;2024-02-04T08:00:12;0.30;;;0.30;;
21299;SDS011;10809;49.476;11.016;2024-02-04T08:02:44;0.20;;;0.20;;
21299;SDS011;10809;49.476;11.016;2024-02-04T08:05:17;0.50;;;0.50;;
21299;SDS011;10809;49.476;11.016;2024-02-04T08:07:48;0.60;;;0.53;;
21299;SDS011;10809;49.476;11.016;2024-02-04T08:10:19;1.10;;;0.80;;
21299;SDS011;10809;49.476;11.016;2024-02-04T08:12:50;1.40;;;1.10;;
21299;SDS011;10809;49.476;11.016;2024-02-04T08:15:23;1.57;;;0.90;;
21299;SDS011;10809;49.476;11.016;2024-02-04T08:17:54;1.33;;;1.07;;
21299;SDS011;10809;49.476;11.016;2024-02-04T08:20:25;0.97;;;0.50;;
21299;SDS011;10809;49.476;11.016;2024-02-04T08:22:57;0.53;;;0.40;;
21299;SDS011;10809;49.476;11.016;2024-02-04T08:25:28;0.30;;;0.30;;
21299;SDS011;10809;49.476;11.016;2024-02-04T08:27:59;0.20;;;0.20;;
21299;SDS011;10809;49.476;11.016;2024-02-04T08:30:30;0.33;;;0.20;;
21299;SDS011;10809;49.476;11.016;2024-02-04T08:33:01;0.10;;;0.10;;
21299;SDS011;10809;49.476;11.016;2024-02-04T08:35:31;0.10;;;0.10;;
21299;SDS011;10809;49.476;11.016;2024-02-04T08:38:02;0.20;;;0.20;;
21299;SDS011;10809;49.476;11.016;2024-02-04T08:40:33;0.10;;;0.10;;
21299;SDS011;10809;49.476;11.016;2024-02-04T08:43:03;0.10;;;0.10;;
21299;SDS011;10809;49.476;11.016;2024-02-04T08:45:34;0.20;;;0.20;;
21299;SDS011;10809;49.476;11.016;2024-02-04T08:48:05;0.20;;;0.20;;
21299;SDS011;10809;49.476;11.016;2024-02-04T08:50:35;0.10;;;0.10;;
21299;SDS011;10809;49.476;11.016;2024-02-04T08:53:06;0.17;;;0.17;;
21299;SDS011;10809;49.476;11.016;2024-02-04T08:55:37;0.20;;;0.20;;
21299;SDS011;10809;49.476;11.016;2024-02-04T08:58:08;0.20;;;0.20;;
21299;SDS011;10809;49.476;11.016;2024-02-04T09:00:39;0.20;;;0.20;;
21299;SDS011;10809;49.476;11.016;2024-02-04T09:03:09;0.10;;;0.10;;
21299;SDS011;10809;49.476;11.016;2024-02-04T09:05:40;0.10;;;0.10;;
21299;SDS011;10809;49.476;11.016;2024-02-04T09:08:10;0.20;;;0.20;;
21299;SDS011;10809;49.476;11.016;2024-02-04T09:10:41;0.20;;;0.20;;
21299;SDS011;10809;49.476;11.016;2024-02-04T09:13:12;0.10;;;0.10;;
21299;SDS011;10809;49.476;11.016;2024-02-04T09:15:42;0.17;;;0.17;;
21299;SDS011;10809;49.476;11.016;2024-02-04T09:18:13;0.20;;;0.20;;
21299;SDS011;10809;49.476;11.016;2024-02-04T09:20:44;0.10;;;0.10;;
21299;SDS011;10809;49.476;11.016;2024-02-04T09:23:15;0.10;;;0.10;;
21299;SDS011;10809;49.476;11.016;2024-02-04T09:25:46;0.20;;;0.20;;
21299;SDS011;10809;49.476;11.016;2024-02-04T09:28:16;0.10;;;0.10;;
21299;SDS011;10809;49.476;11.016;2024-02-04T09:30:47;0.20;;;0.20;;
21299;SDS011;10809;49.476;11.016;2024-02-04T09:33:18;0.23;;;0.20;;
21299;SDS011;10809;49.476;11.016;2024-02-04T09:35:48;0.10;;;0.10;;
21299;SDS011;10809;49.476;11.016;2024-02-04T09:38:19;1.37;;;0.10;;
21299;SDS011;10809;49.476;11.016;2024-02-04T09:40:51;0.10;;;0.10;;
21299;SDS011;10809;49.476;11.016;2024-02-04T09:43:21;0.10;;;0.10;;
21299;SDS011;10809;49.476;11.016;2024-02-04T09:45:53;0.10;;;0.10;;
21299;SDS011;10809;49.476;11.016;2024-02-04T09:48:24;0.20;;;0.20;;
21299;SDS011;10809;49.476;11.016;2024-02-04T09:50:57;0.20;;;0.20;;
21299;SDS011;10809;49.476;11.016;2024-02-04T09:53:34;0.20;;;0.20;;
21299;SDS011;10809;49.476;11.016;2024-02-04T09:56:05;0.10;;;0.10;;
21299;SDS011;10809;49.476;11.016;2024-02-04T09:58:38;0.20;;;0.20;;
21299;SDS011;10809;49.476;11.016;2024-02-04T10:01:08;0.20;;;0.20;;
21299;SDS011;10809;49.476;11.016;2024-02-04T10:03:41;3.60;;;0.40;;
21299;SDS011;10809;49.476;11.016;2024-02-04T10:06:12;0.20;;;0.20;;
21299;SDS011;10809;49.476;11.016;2024-02-04T10:08:42;0.10;;;0.10;;
21299;SDS011;10809;49.476;11.016;2024-02-04T10:11:13;0.20;;;0.20;;
21299;SDS011;10809;49.476;11.016;2024-02-04T10:13:48;0.10;;;0.10;;
21299;SDS011;10809;49.476;11.016;2024-02-04T10:16:23;0.10;;;0.10;;
21299;SDS011;10809;49.476;11.016;2024-02-04T10:18:53;0.10;;;0.10;;
21299;SDS011;10809;49.476;11.016;2024-02-04T10:21:27;0.30;;;0.30;;
21299;SDS011;10809;49.476;11.016;2024-02-04T10:24:01;0.10;;;0.10;;
21299;SDS011;10809;49.476;11.016;2024-02-04T10:26:32;0.10;;;0.10;;
21299;SDS011;10809;49.476;11.016;2024-02-04T10:29:05;0.10;;;0.10;;
21299;SDS011;10809;49.476;11.016;2024-02-04T10:31:36;0.13;;;0.13;;
21299;SDS011;10809;49.476;11.016;2024-02-04T10:34:07;0.10;;;0.10;;
21299;SDS011;10809;49.476;11.016;2024-02-04T10:36:38;0.20;;;0.20;;
21299;SDS011;10809;49.476;11.016;2024-02-04T10:39:08;0.30;;;0.30;;
21299;SDS011;10809;49.476;11.016;2024-02-04T10:41:49;0.20;;;0.20;;
21299;SDS011;10809;49.476;11.016;2024-02-04T10:44:22;0.10;;;0.10;;
21299;SDS011;10809;49.476;11.016;2024-02-04T10:46:54;0.40;;;0.40;;
21299;SDS011;10809;49.476;11.016;2024-02-04T10:49:25;0.20;;;0.20;;
21299;SDS011;10809;49.476;11.016;2024-02-04T10:52:00;0.10;;;0.10;;
21299;SDS011;10809;49.476;11.016;2024-02-04T10:54:36;0.10;;;0.10;;
21299;SDS011;10809;49.476;11.016;2024-02-04T10:57:13;0.10;;;0.10;;
21299;SDS011;10809;49.476;11.016;2024-02-04T10:59:51;0.10;;;0.10;;
21299;SDS011;10809;49.476;11.016;2024-02-04T11:02:22;0.10;;;0.10;;
21299;SDS011;10809;49.476;11.016;2024-02-04T11:04:54;0.10;;;0.10;;
21299;SDS011;10809;49.476;11.016;2024-02-04T11:07:25;0.00;;;0.00;;
21299;SDS011;10809;49.476;11.016;2024-02-04T11:09:58;0.10;;;0.10;;
21299;SDS011;10809;49.476;11.016;2024-02-04T11:12:30;0.40;;;0.20;;
21299;SDS011;10809;49.476;11.016;2024-02-04T11:15:03;0.20;;;0.10;;
21299;SDS011;10809;49.476;11.016;2024-02-04T11:23:42;0.10;;;0.10;;
21299;SDS011;10809;49.476;11.016;2024-02-04T11:26:40;0.10;;;0.10;;
21299;SDS011;10809;49.476;11.016;2024-02-04T11:29:11;0.33;;;0.20;;
21299;SDS011;10809;49.476;11.016;2024-02-04T11:31:42;0.10;;;0.10;;
21299;SDS011;10809;49.476;11.016;2024-02-04T11:34:14;0.10;;;0.10;;
21299;SDS011;10809;49.476;11.016;2024-02-04T11:36:44;0.53;;;0.10;;
21299;SDS011;10809;49.476;11.016;2024-02-04T11:39:17;0.10;;;0.10;;
21299;SDS011;10809;49.476;11.016;2024-02-04T11:41:51;0.10;;;0.10;;
21299;SDS011;10809;49.476;11.016;2024-02-04T11:44:22;0.17;;;0.17;;
21299;SDS011;10809;49.476;11.016;2024-02-04T11:46:54;0.10;;;0.10;;
21299;SDS011;10809;49.476;11.016;2024-02-04T11:49:25;0.10;;;0.10;;
21299;SDS011;10809;49.476;11.016;2024-02-04T11:51:56;0.10;;;0.10;;
21299;SDS011;10809;49.476;11.016;2024-02-04T11:54:27;0.30;;;0.30;;
21299;SDS011;10809;49.476;11.016;2024-02-04T11:56:58;0.30;;;0.30;;
21299;SDS011;10809;49.476;11.016;2024-02-04T11:59:29;0.40;;;0.30;;
21299;SDS011;10809;49.476;11.016;2024-02-04T12:02:05;0.20;;;0.20;;
21299;SDS011;10809;49.476;11.016;2024-02-04T12:04:36;0.30;;;0.30;;
21299;SDS011;10809;49.476;11.016;2024-02-04T12:07:09;0.17;;;0.17;;
21299;SDS011;10809;49.476;11.016;2024-02-04T12:09:40;0.20;;;0.10;;
21299;SDS011;10809;49.476;11.016;2024-02-04T12:12:12;0.37;;;0.17;;
21299;SDS011;10809;49.476;11.016;2024-02-04T12:14:43;0.10;;;0.10;;
21299;SDS011;10809;49.476;11.016;2024-02-04T12:17:15;0.30;;;0.13;;
21299;SDS011;10809;49.476;11.016;2024-02-04T12:19:52;0.13;;;0.13;;
21299;SDS011;10809;49.476;11.016;2024-02-04T12:22:23;0.03;;;0.03;;
21299;SDS011;10809;49.476;11.016;2024-02-04T12:24:54;0.13;;;0.13;;
21299;SDS011;10809;49.476;11.016;2024-02-04T12:27:28;0.20;;;0.10;;
21299;SDS011;10809;49.476;11.016;2024-02-04T12:29:59;0.23;;;0.20;;
21299;SDS011;10809;49.476;11.016;2024-02-04T12:32:29;0.10;;;0.10;;
21299;SDS011;10809;49.476;11.016;2024-02-04T12:35:00;0.10;;;0.10;;
21299;SDS011;10809;49.476;11.016;2024-02-04T12:37:31;0.10;;;0.10;;
21299;SDS011;10809;49.476;11.016;2024-02-04T12:40:04;0.10;;;0.10;;
21299;SDS011;10809;49.476;11.016;2024-02-04T12:42:39;0.30;;;0.30;;
21299;SDS011;10809;49.476;11.016;2024-02-04T12:45:10;0.53;;;0.23;;
21299;SDS011;10809;49.476;11.016;2024-02-04T12:47:51;0.10;;;0.10;;
21299;SDS011;10809;49.476;11.016;2024-02-04T12:50:26;0.73;;;0.20;;
21299;SDS011;10809;49.476;11.016;2024-02-04T12:53:03;0.10;;;0.10;;
21299;SDS011;10809;49.476;11.016;2024-02-04T12:55:57;0.13;;;0.13;;
21299;SDS011;10809;49.476;11.016;2024-02-04T12:58:31;0.30;;;0.30;;
21299;SDS011;10809;49.476;11.016;2024-02-04T13:01:12;0.10;;;0.10;;
21299;SDS011;10809;49.476;11.016;2024-02-04T13:03:43;0.10;;;0.10;;
21299;SDS011;10809;49.476;11.016;2024-02-04T13:06:15;0.10;;;0.10;;
21299;SDS011;10809;49.476;11.016;2024-02-04T13:08:45;0.20;;;0.10;;
21299;SDS011;10809;49.476;11.016;2024-02-04T13:11:22;0.10;;;0.10;;
21299;SDS011;10809;49.476;11.016;2024-02-04T13:13:55;0.20;;;0.20;;
21299;SDS011;10809;49.476;11.016;2024-02-04T13:16:26;0.20;;;0.20;;
21299;SDS011;10809;49.476;11.016;2024-02-04T13:18:57;0.10;;;0.10;;
21299;SDS011;10809;49.476;11.016;2024-02-04T13:21:30;0.17;;;0.17;;
21299;SDS011;10809;49.476;11.016;2024-02-04T13:24:01;0.10;;;0.10;;
21299;SDS011;10809;49.476;11.016;2024-02-04T13:26:32;0.10;;;0.10;;
21299;SDS011;10809;49.476;11.016;2024-02-04T13:29:03;0.10;;;0.10;;
21299;SDS011;10809;49.476;11.016;2024-02-04T13:31:33;0.10;;;0.10;;
21299;SDS011;10809;49.476;11.016;2024-02-04T13:34:04;0.10;;;0.10;;
21299;SDS011;10809;49.476;11.016;2024-02-04T13:36:34;0.10;;;0.10;;
21299;SDS011;10809;49.476;11.016;2024-02-04T13:39:05;0.10;;;0.10;;
21299;SDS011;10809;49.476;11.016;2024-02-04T13:41:36;0.10;;;0.10;;
21299;SDS011;10809;49.476;11.016;2024-02-04T13:44:06;0.20;;;0.20;;
21299;SDS011;10809;49.476;11.016;2024-02-04T13:46:37;0.20;;;0.20;;
21299;SDS011;10809;49.476;11.016;2024-02-04T13:49:12;0.30;;;0.30;;
21299;SDS011;10809;49.476;11.016;2024-02-04T13:51:42;0.30;;;0.30;;
21299;SDS011;10809;49.476;11.016;2024-02-04T13:54:13;0.10;;;0.10;;
21299;SDS011;10809;49.476;11.016;2024-02-04T13:56:47;0.20;;;0.10;;
21299;SDS011;10809;49.476;11.016;2024-02-04T13:59:17;0.57;;;0.20;;
21299;SDS011;10809;49.476;11.016;2024-02-04T14:01:48;0.13;;;0.13;;
21299;SDS011;10809;49.476;11.016;2024-02-04T14:04:20;1.70;;;0.20;;
21299;SDS011;10809;49.476;11.016;2024-02-04T14:06:51;0.10;;;0.10;;
21299;SDS011;10809;49.476;11.016;2024-02-04T14:09:22;0.23;;;0.20;;
21299;SDS011;10809;49.476;11.016;2024-02-04T14:11:52;0.10;;;0.10;;
21299;SDS011;10809;49.476;11.016;2024-02-04T14:14:24;0.13;;;0.13;;
21299;SDS011;10809;49.476;11.016;2024-02-04T14:16:55;0.10;;;0.10;;
21299;SDS011;10809;49.476;11.016;2024-02-04T14:19:25;0.20;;;0.20;;
21299;SDS011;10809;49.476;11.016;2024-02-04T14:21:56;0.10;;;0.10;;
21299;SDS011;10809;49.476;11.016;2024-02-04T14:24:26;0.20;;;0.20;;
21299;SDS011;10809;49.476;11.016;2024-02-04T14:26:57;0.20;;;0.20;;
21299;SDS011;10809;49.476;11.016;2024-02-04T14:29:29;0.20;;;0.20;;
21299;SDS011;10809;49.476;11.016;2024-02-04T14:31:59;1.00;;;0.20;;
21299;SDS011;10809;49.476;11.016;2024-02-04T14:34:30;0.20;;;0.20;;
21299;SDS011;10809;49.476;11.016;2024-02-04T14:37:01;0.10;;;0.10;;
21299;SDS011;10809;49.476;11.016;2024-02-04T14:39:31;0.10;;;0.10;;
21299;SDS011;10809;49.476;11.016;2024-02-04T14:42:02;0.10;;;0.10;;
21299;SDS011;10809;49.476;11.016;2024-02-04T14:44:32;0.20;;;0.20;;
21299;SDS011;10809;49.476;11.016;2024-02-04T14:47:03;0.20;;;0.20;;
21299;SDS011;10809;49.476;11.016;2024-02-04T14:49:34;0.20;;;0.20;;
21299;SDS011;10809;49.476;11.016;2024-02-04T14:52:05;0.37;;;0.20;;
21299;SDS011;10809;49.476;11.016;2024-02-04T14:54:36;0.13;;;0.13;;
21299;SDS011;10809;49.476;11.016;2024-02-04T14:57:06;0.20;;;0.20;;
21299;SDS011;10809;49.476;11.016;2024-02-04T14:59:39;0.10;;;0.10;;
21299;SDS011;10809;49.476;11.016;2024-02-04T15:02:10;1.03;;;0.20;;
21299;SDS011;10809;49.476;11.016;2024-02-04T15:04:40;0.30;;;0.30;;
21299;SDS011;10809;49.476;11.016;2024-02-04T15:07:11;0.30;;;0.30;;
21299;SDS011;10809;49.476;11.016;2024-02-04T15:09:44;0.10;;;0.10;;
21299;SDS011;10809;49.476;11.016;2024-02-04T15:12:15;0.27;;;0.27;;
21299;SDS011;10809;49.476;11.016;2024-02-04T15:14:48;0.20;;;0.20;;
21299;SDS011;10809;49.476;11.016;2024-02-04T15:17:19;0.80;;;0.30;;